KOLV/OLV METAR and TAF weather

Enter ICAO airport designator
Station Type Date Time Source
KOLV METAR 2019/02/16 06:55 UTC NOAA

KOLV 160655Z AUTO 02009G16KT 3SM BR OVC007 00/00 A2988 RMK A01


Station Type Date Time Source
KOLV Decoded METAR 2019/02/16 06:55 UTC NOAA

Olive Branch, Olive Branch Airport, MS, United States (KOLV) 34-58-44N 089-47-13W
Feb 16, 2019 - 01:55 AM EST / 2019.02.16 0655 UTC
Wind: from the NNE (020 degrees) at 10 MPH (9 KT) gusting to 18 MPH (16 KT):0
Visibility: 3 mile(s):0
Sky conditions: overcast
Weather: mist
Temperature: 32 F (0 C)
Windchill: 23 F (-5 C):1
Dew Point: 32 F (0 C)
Relative Humidity: 100%
Pressure (altimeter): 29.88 in. Hg (1011 hPa)
ob: KOLV 160655Z AUTO 02009G16KT 3SM BR OVC007 00/00 A2988 RMK A01
cycle: 7

Station Type Date Time Source
KOLV TAF UTC NOAA

Error!


Example: see airport list